Time;durP1;ratioP1;P1;durP2;ratioP2;P2;SDS_P1;SDS_P2;PMS_P1;PMS_P2;Temp;Humidity;BMP_temperature;BMP_pressure;BME280_temperature;BME280_humidity;BME280_pressure;Samples;Min_cycle;Max_cycle;Signal;HPM_P1;HPM_P2
2023/08/21 00:00:08;;;;;;;6.43;5.20;;;;;;;16.91;66.97;99955.31;4889251;29;20032;-72
2023/08/21 00:02:33;;;;;;;8.23;5.88;;;;;;;16.66;66.65;99929.88;4886797;29;20081;-70
2023/08/21 00:04:59;;;;;;;9.15;5.63;;;;;;;16.81;67.06;99960.91;4887304;29;20054;-73
2023/08/21 00:07:25;;;;;;;7.97;5.70;;;;;;;17.10;67.49;100003.78;4870400;29;20071;-72
2023/08/21 00:09:51;;;;;;;6.53;5.70;;;;;;;16.79;66.74;99970.59;4885047;29;20411;-73
2023/08/21 00:12:18;;;;;;;7.38;6.00;;;;;;;17.00;67.49;100005.84;4887353;29;20083;-72
2023/08/21 00:14:44;;;;;;;7.68;6.10;;;;;;;16.80;67.61;99972.31;4889655;29;20123;-72
2023/08/21 00:17:10;;;;;;;6.00;5.40;;;;;;;16.71;67.35;99969.97;4901063;29;20044;-72
2023/08/21 00:19:36;;;;;;;6.35;5.70;;;;;;;16.93;67.53;100006.94;4901412;29;20045;-71
2023/08/21 00:22:02;;;;;;;9.85;6.53;;;;;;;16.98;67.34;100017.34;4886028;29;20040;-70
2023/08/21 00:24:27;;;;;;;6.40;5.63;;;;;;;16.78;67.49;99994.28;4904242;29;20681;-71
2023/08/21 00:26:53;;;;;;;7.85;6.47;;;;;;;16.79;67.30;100002.13;4887424;29;20500;-73
2023/08/21 00:29:19;;;;;;;7.40;5.93;;;;;;;16.95;67.51;100020.03;4896966;29;20382;-71
2023/08/21 00:31:45;;;;;;;7.63;6.47;;;;;;;16.87;67.49;100017.66;4886553;29;20680;-72
2023/08/21 00:34:11;;;;;;;7.68;6.30;;;;;;;16.83;67.67;100026.53;4890192;29;20036;-72
2023/08/21 00:36:37;;;;;;;7.90;6.55;;;;;;;16.69;67.82;99998.06;4888651;29;20047;-71
2023/08/21 00:39:03;;;;;;;7.90;6.45;;;;;;;16.63;67.57;99998.25;4885894;29;20529;-73
2023/08/21 00:41:29;;;;;;;7.72;6.40;;;;;;;16.69;67.53;100016.44;4901694;29;20529;-71
2023/08/21 00:43:55;;;;;;;9.40;6.68;;;;;;;16.70;67.79;100029.56;4895233;29;20048;-73
2023/08/21 00:46:21;;;;;;;7.95;7.05;;;;;;;16.70;67.95;100026.94;4887150;29;20044;-71
2023/08/21 00:48:47;;;;;;;8.05;6.45;;;;;;;16.74;67.78;100021.59;4900559;29;20160;-71
2023/08/21 00:51:16;;;;;;;8.20;6.75;;;;;;;16.42;67.53;99974.38;4881462;29;20051;-71
2023/08/21 00:53:44;;;;;;;8.23;6.32;;;;;;;16.58;67.67;100002.78;4871379;29;20055;-71
2023/08/21 00:56:12;;;;;;;8.10;6.45;;;;;;;16.66;67.32;100027.06;4869806;29;20053;-71
2023/08/21 00:58:38;;;;;;;9.52;7.07;;;;;;;16.66;67.71;100030.53;4885877;29;20051;-71
2023/08/21 01:01:04;;;;;;;9.48;6.53;;;;;;;16.56;67.99;100008.06;4886898;29;20040;-71
2023/08/21 01:03:30;;;;;;;7.47;5.90;;;;;;;16.45;67.43;99997.91;4864101;29;20511;-71
2023/08/21 01:05:57;;;;;;;7.05;5.93;;;;;;;16.51;67.80;100008.22;4887454;29;20074;-70
2023/08/21 01:08:59;;;;;;;8.77;5.97;;;;;;;16.64;67.61;100031.50;4884386;29;20051;-71
2023/08/21 01:11:38;;;;;;;9.07;6.32;;;;;;;16.55;67.67;100016.91;4874264;29;20045;-71
2023/08/21 01:14:26;;;;;;;6.63;5.93;;;;;;;16.60;67.32;100024.63;4885560;29;20045;-71
2023/08/21 01:16:55;;;;;;;6.85;5.60;;;;;;;16.58;67.54;100026.44;4886472;29;20192;-71
2023/08/21 01:19:40;;;;;;;8.15;5.55;;;;;;;16.55;67.63;100020.38;4870057;29;20095;-72
2023/08/21 01:22:06;;;;;;;6.60;5.90;;;;;;;16.53;67.26;100023.97;4885340;29;20413;-71
2023/08/21 01:24:33;;;;;;;6.82;5.32;;;;;;;16.37;67.20;99997.28;4900387;29;20051;-72
2023/08/21 01:26:59;;;;;;;6.30;5.30;;;;;;;16.16;67.22;99977.75;4896410;29;20064;-72
2023/08/21 01:29:27;;;;;;;7.90;5.70;;;;;;;16.42;67.17;100019.88;4887428;29;20065;-72
2023/08/21 01:32:06;;;;;;;7.07;5.60;;;;;;;16.34;66.68;100023.63;4886375;29;20088;-71
2023/08/21 01:34:34;;;;;;;5.75;4.80;;;;;;;16.22;67.20;100020.44;4885882;29;20040;-71
2023/08/21 01:37:01;;;;;;;6.00;5.15;;;;;;;16.14;67.10;99997.94;4885695;29;20045;-72
2023/08/21 01:39:27;;;;;;;6.47;5.10;;;;;;;16.19;67.25;100002.19;4899382;29;20047;-70
2023/08/21 01:41:53;;;;;;;6.63;5.40;;;;;;;16.03;66.86;99986.00;4900742;29;20044;-72
2023/08/21 01:44:20;;;;;;;5.63;4.85;;;;;;;16.27;66.74;100033.47;4883858;29;20076;-71
2023/08/21 01:46:46;;;;;;;6.93;4.88;;;;;;;15.96;66.96;99987.06;4889745;29;20078;-72
2023/08/21 01:49:12;;;;;;;5.93;4.55;;;;;;;15.99;67.31;99991.38;4892076;29;20090;-71
2023/08/21 01:51:38;;;;;;;8.65;4.53;;;;;;;16.14;67.61;100017.19;4873754;29;20151;-70
2023/08/21 01:54:04;;;;;;;5.40;4.00;;;;;;;16.01;67.55;100006.19;4902952;29;20044;-71
2023/08/21 01:56:30;;;;;;;4.82;3.38;;;;;;;15.90;67.50;99993.34;4883808;29;20587;-70
2023/08/21 01:58:56;;;;;;;5.90;4.68;;;;;;;15.82;67.15;100004.03;4886642;29;20040;-70
2023/08/21 02:01:23;;;;;;;6.18;3.97;;;;;;;15.52;67.70;99977.72;4891080;29;20784;-72
2023/08/21 02:03:49;;;;;;;5.43;4.25;;;;;;;15.65;67.91;100017.59;4902939;29;20052;-70
2023/08/21 02:06:15;;;;;;;8.90;4.20;;;;;;;15.63;68.00;100024.66;4874431;29;20092;-71
2023/08/21 02:08:40;;;;;;;7.78;4.53;;;;;;;15.57;67.85;100027.41;4887004;29;20048;-70
2023/08/21 02:11:06;;;;;;;7.18;4.35;;;;;;;15.26;68.21;99991.50;4903548;29;20068;-72
2023/08/21 02:13:34;;;;;;;9.55;5.20;;;;;;;15.21;68.51;99981.16;4903387;29;20041;-70
2023/08/21 02:16:00;;;;;;;8.18;5.55;;;;;;;15.39;68.41;100020.03;4869486;29;20044;-72
2023/08/21 02:18:26;;;;;;;8.45;5.93;;;;;;;15.34;69.03;100026.25;4888073;29;20135;-71
2023/08/21 02:20:52;;;;;;;10.77;6.50;;;;;;;15.09;68.81;99988.47;4872739;29;20127;-71
2023/08/21 02:23:18;;;;;;;8.88;6.45;;;;;;;15.31;68.84;100041.19;4903458;29;20115;-73
2023/08/21 02:25:44;;;;;;;8.10;6.55;;;;;;;14.69;68.85;99949.19;4903176;29;20213;-71
2023/08/21 02:28:10;;;;;;;8.25;6.55;;;;;;;15.14;69.00;100037.22;4858780;29;20093;-70
2023/08/21 02:30:40;;;;;;;7.60;5.60;;;;;;;14.82;69.26;99985.59;4889756;29;20154;-72
2023/08/21 02:33:06;;;;;;;9.73;6.18;;;;;;;14.93;69.29;100022.88;4890902;29;20087;-71
2023/08/21 02:35:32;;;;;;;8.10;6.30;;;;;;;15.04;69.57;100041.84;4887303;29;20168;-72
2023/08/21 02:37:58;;;;;;;8.82;6.28;;;;;;;15.06;69.90;100050.53;4888940;29;21136;-72
2023/08/21 02:40:24;;;;;;;9.98;6.35;;;;;;;14.90;70.02;100038.66;4888688;29;20041;-72
2023/08/21 02:42:49;;;;;;;7.78;6.03;;;;;;;14.91;69.63;100046.50;4888447;29;20044;-71
2023/08/21 02:45:15;;;;;;;9.25;6.40;;;;;;;14.79;70.41;100020.56;4891183;29;20056;-71
2023/08/21 02:47:42;;;;;;;8.75;6.40;;;;;;;14.95;70.22;100047.28;4891026;29;20040;-71
2023/08/21 02:50:09;;;;;;;8.27;5.68;;;;;;;14.87;70.42;100036.97;4890755;29;20487;-72
2023/08/21 02:52:36;;;;;;;8.23;5.88;;;;;;;14.97;70.47;100047.25;4887933;29;20064;-70
2023/08/21 02:55:03;;;;;;;6.85;5.90;;;;;;;14.91;70.20;100040.38;4887991;29;20131;-72
2023/08/21 02:57:30;;;;;;;8.07;6.30;;;;;;;14.69;70.25;100004.19;4889898;29;20041;-70
2023/08/21 02:59:56;;;;;;;7.57;5.68;;;;;;;15.03;70.59;100050.59;4885479;29;20504;-72
2023/08/21 03:02:22;;;;;;;6.90;5.10;;;;;;;14.98;70.48;100054.22;4887798;29;20052;-71
2023/08/21 03:04:49;;;;;;;10.35;5.10;;;;;;;15.04;70.67;100051.44;4899452;29;20045;-71
2023/08/21 03:07:15;;;;;;;8.02;5.53;;;;;;;14.94;70.97;100032.44;4867097;29;20036;-72
2023/08/21 03:09:42;;;;;;;6.50;5.32;;;;;;;15.07;71.01;100038.25;4890098;29;20143;-72
2023/08/21 03:12:08;;;;;;;6.72;5.10;;;;;;;15.02;70.87;100011.31;4887141;29;20048;-72
2023/08/21 03:14:35;;;;;;;7.85;5.70;;;;;;;15.26;71.00;100043.06;4902379;29;20423;-73
2023/08/21 03:17:01;;;;;;;8.05;4.95;;;;;;;15.43;70.72;100061.88;4886680;29;20054;-72
2023/08/21 03:19:27;;;;;;;6.35;4.75;;;;;;;15.55;70.80;100058.09;4895965;29;20037;-71
2023/08/21 03:21:53;;;;;;;7.85;4.90;;;;;;;15.55;70.46;100039.75;4875488;29;20059;-72
2023/08/21 03:24:19;;;;;;;9.10;5.10;;;;;;;15.75;70.55;100059.34;4882378;29;20048;-72
2023/08/21 03:26:45;;;;;;;6.35;4.93;;;;;;;15.82;70.71;100055.63;4901816;29;20053;-71
2023/08/21 03:29:11;;;;;;;7.30;4.82;;;;;;;15.96;70.07;100063.16;4901567;29;20049;-73
2023/08/21 03:31:37;;;;;;;6.35;4.50;;;;;;;16.03;69.96;100056.88;4873287;29;20057;-71
2023/08/21 03:34:03;;;;;;;6.90;4.97;;;;;;;15.91;69.73;100020.44;4888479;29;20155;-71
2023/08/21 03:36:31;;;;;;;5.93;4.38;;;;;;;16.10;69.83;100060.19;4886357;29;20087;-71
2023/08/21 03:39:01;;;;;;;9.52;4.78;;;;;;;16.16;69.76;100057.38;4884723;29;20057;-72
2023/08/21 03:41:28;;;;;;;5.50;4.43;;;;;;;16.17;69.44;100042.47;4874318;29;20059;-71
2023/08/21 03:43:54;;;;;;;7.13;5.05;;;;;;;16.29;69.08;100033.41;4888358;29;20045;-71
2023/08/21 03:46:20;;;;;;;7.05;5.35;;;;;;;16.34;69.09;100019.22;4888352;29;20056;-71
2023/08/21 03:48:46;;;;;;;5.22;4.40;;;;;;;16.91;68.93;100063.97;4889518;29;20053;-71
2023/08/21 03:51:12;;;;;;;7.93;4.75;;;;;;;17.06;68.25;100036.38;4858809;29;20039;-71
2023/08/21 03:53:38;;;;;;;6.80;4.50;;;;;;;17.31;67.64;100051.34;4902478;29;20036;-71
2023/08/21 03:56:05;;;;;;;6.25;4.30;;;;;;;17.36;67.02;100052.03;4885950;29;20505;-71
2023/08/21 03:58:32;;;;;;;8.55;5.35;;;;;;;17.37;66.57;100053.75;4869353;29;20048;-72
2023/08/21 04:00:58;;;;;;;8.25;4.50;;;;;;;17.40;66.12;100029.97;4888383;29;20099;-70
2023/08/21 04:03:25;;;;;;;6.30;4.47;;;;;;;17.54;65.97;100039.19;4853997;29;21054;-72
2023/08/21 04:05:53;;;;;;;5.95;4.28;;;;;;;17.64;65.25;100024.81;4885835;29;20081;-72
2023/08/21 04:08:19;;;;;;;6.97;4.30;;;;;;;17.85;65.00;100032.84;4873620;29;20044;-71
2023/08/21 04:10:45;;;;;;;7.20;4.65;;;;;;;17.91;64.90;100011.59;4901670;29;20599;-70
2023/08/21 04:13:11;;;;;;;4.45;3.85;;;;;;;18.26;64.30;100041.06;4896301;29;20130;-71
2023/08/21 04:15:37;;;;;;;9.40;4.00;;;;;;;18.34;63.93;100036.38;4886318;29;20496;-71
2023/08/21 04:18:04;;;;;;;5.90;4.10;;;;;;;18.46;62.74;100029.78;4885729;29;20047;-72
2023/08/21 04:20:31;;;;;;;7.65;4.15;;;;;;;18.68;62.77;100063.22;4886707;29;20044;-71
2023/08/21 04:22:56;;;;;;;7.88;3.85;;;;;;;18.43;62.50;100018.50;4901564;29;20097;-71
2023/08/21 04:25:23;;;;;;;6.43;3.78;;;;;;;18.72;62.32;100045.50;4896672;29;20052;-72
2023/08/21 04:27:48;;;;;;;5.80;3.60;;;;;;;18.89;61.93;100061.50;4885831;29;20140;-70
2023/08/21 04:30:15;;;;;;;5.03;3.80;;;;;;;18.88;61.75;100040.50;4884885;29;20048;-71
2023/08/21 04:32:41;;;;;;;8.43;3.92;;;;;;;19.01;61.62;100027.72;4885442;29;20044;-73
2023/08/21 04:35:08;;;;;;;4.35;3.75;;;;;;;19.36;61.28;100052.66;4871079;29;20154;-72
2023/08/21 04:37:34;;;;;;;4.88;3.55;;;;;;;19.37;60.81;100056.13;4870025;29;20124;-70
2023/08/21 04:40:01;;;;;;;4.53;2.78;;;;;;;19.11;60.55;100002.66;4884332;29;20089;-72
2023/08/21 04:42:29;;;;;;;4.90;2.97;;;;;;;19.50;60.32;100046.81;4886458;29;20044;-70
2023/08/21 04:44:55;;;;;;;4.28;2.78;;;;;;;19.63;59.88;100047.16;4886565;29;20069;-72
2023/08/21 04:47:26;;;;;;;5.65;2.97;;;;;;;19.59;58.63;100039.41;4885588;29;20052;-72
2023/08/21 04:49:56;;;;;;;3.28;2.70;;;;;;;19.61;58.93;100041.06;4868581;29;20045;-72
2023/08/21 04:52:26;;;;;;;4.90;2.70;;;;;;;19.70;58.93;100019.53;4884734;29;20044;-72
2023/08/21 04:54:53;;;;;;;3.90;2.70;;;;;;;20.02;57.93;100042.84;4887311;29;20044;-71
2023/08/21 04:57:23;;;;;;;3.97;2.90;;;;;;;20.00;57.79;100010.34;4880980;29;20076;-72
2023/08/21 04:59:49;;;;;;;3.55;2.38;;;;;;;20.25;57.94;100010.13;4868905;29;20040;-74
2023/08/21 05:02:16;;;;;;;3.25;2.50;;;;;;;20.42;57.53;99990.81;4885758;29;20048;-71
2023/08/21 05:04:42;;;;;;;3.15;2.17;;;;;;;20.88;56.69;100035.41;4854688;29;20040;-71
2023/08/21 05:07:09;;;;;;;3.20;2.30;;;;;;;20.91;56.40;100032.63;4884687;29;20044;-74
2023/08/21 05:09:34;;;;;;;3.67;2.50;;;;;;;21.11;55.77;100049.31;4899871;29;20044;-73
2023/08/21 05:12:01;;;;;;;2.45;2.08;;;;;;;21.13;55.33;100023.63;4880985;29;20055;-71
2023/08/21 05:14:27;;;;;;;3.67;2.25;;;;;;;21.35;55.05;100034.00;4902072;29;20060;-72
2023/08/21 05:16:53;;;;;;;3.67;2.35;;;;;;;21.54;54.45;100038.34;4900061;29;20049;-71
2023/08/21 05:19:20;;;;;;;3.08;2.20;;;;;;;21.70;53.38;100041.13;4899243;29;20068;-72
2023/08/21 05:21:46;;;;;;;3.58;2.03;;;;;;;22.03;53.74;100042.94;4889372;29;20424;-71
2023/08/21 05:24:12;;;;;;;3.28;1.95;;;;;;;22.75;52.95;100049.72;4903853;29;20066;-72
2023/08/21 05:26:43;;;;;;;3.13;2.17;;;;;;;23.29;51.81;100034.28;4876646;29;22219;-72
2023/08/21 05:29:09;;;;;;;2.65;2.10;;;;;;;25.03;51.51;100028.16;4905376;29;20084;-71
2023/08/21 05:31:35;;;;;;;3.33;1.90;;;;;;;26.23;47.67;99983.63;4889483;29;20501;-72
2023/08/21 05:34:01;;;;;;;3.60;2.10;;;;;;;27.23;45.78;100010.16;4871551;29;20044;-73
2023/08/21 05:36:27;;;;;;;2.72;1.60;;;;;;;28.69;44.12;100009.53;4893003;29;20048;-75
2023/08/21 05:38:53;;;;;;;3.05;1.80;;;;;;;29.24;41.12;99971.97;4888568;29;20519;-73
2023/08/21 05:41:19;;;;;;;2.22;1.75;;;;;;;29.11;40.21;99987.38;4865796;29;20133;-71
2023/08/21 05:43:47;;;;;;;3.72;1.90;;;;;;;29.43;39.12;100030.22;4888620;29;20104;-73
2023/08/21 05:46:14;;;;;;;4.30;1.70;;;;;;;30.24;38.18;100044.78;4876163;29;20056;-72
2023/08/21 05:48:43;;;;;;;3.28;2.20;;;;;;;30.99;36.29;99992.56;4870456;29;20468;-73
2023/08/21 05:51:09;;;;;;;2.78;2.00;;;;;;;32.53;34.98;100012.09;4891187;29;20056;-73
2023/08/21 05:53:35;;;;;;;1.80;1.70;;;;;;;33.75;33.20;100000.84;4905037;29;20088;-71
2023/08/21 05:56:02;;;;;;;2.05;1.88;;;;;;;34.93;31.64;100018.16;4891439;29;20052;-73
2023/08/21 05:58:31;;;;;;;2.45;1.75;;;;;;;35.99;30.30;100026.38;4900958;29;20048;-72
2023/08/21 06:00:57;;;;;;;2.40;1.73;;;;;;;35.43;29.36;99956.84;4890960;29;20064;-73
2023/08/21 06:03:23;;;;;;;4.22;1.80;;;;;;;36.16;29.11;100032.59;4882886;29;20056;-72
2023/08/21 06:06:22;;;;;;;2.80;1.92;;;;;;;36.70;27.81;100025.56;4907707;29;20363;-74
2023/08/21 06:08:48;;;;;;;2.67;1.70;;;;;;;37.42;26.91;100029.75;4889039;29;20072;-72
2023/08/21 06:11:15;;;;;;;3.13;2.00;;;;;;;37.17;25.32;100004.75;4887776;29;20040;-74
2023/08/21 06:13:41;;;;;;;4.45;1.88;;;;;;;36.84;25.58;99994.16;4904527;29;20060;-75
2023/08/21 06:16:07;;;;;;;2.90;1.80;;;;;;;36.50;25.12;99960.16;4860723;29;20045;-74
2023/08/21 06:18:37;;;;;;;2.92;1.83;;;;;;;35.44;26.32;99966.63;4871039;29;20109;-74
2023/08/21 06:21:02;;;;;;;2.28;1.80;;;;;;;36.17;25.95;99953.91;4898621;29;20586;-74
2023/08/21 06:23:29;;;;;;;1.83;1.58;;;;;;;37.63;23.78;99987.53;4872220;29;20082;-74
2023/08/21 06:25:55;;;;;;;3.40;1.90;;;;;;;36.55;23.94;99953.19;4881184;29;20047;-73
2023/08/21 06:28:25;;;;;;;2.00;1.80;;;;;;;35.81;23.65;99954.38;4888296;29;20052;-76
2023/08/21 06:31:07;;;;;;;2.50;1.80;;;;;;;37.16;23.86;100011.19;4883364;29;20045;-75
2023/08/21 06:33:33;;;;;;;4.95;1.63;;;;;;;38.37;23.38;100013.81;4871360;29;20123;-75
2023/08/21 06:36:09;;;;;;;3.78;1.70;;;;;;;38.73;22.54;99984.94;4877282;29;20060;-75
2023/08/21 06:38:35;;;;;;;3.90;1.73;;;;;;;38.04;22.53;99942.78;4885814;29;20475;-73
2023/08/21 06:41:01;;;;;;;1.80;1.70;;;;;;;36.92;23.07;99973.25;4889879;29;20100;-75
2023/08/21 06:43:30;;;;;;;4.03;1.55;;;;;;;37.10;23.04;99991.06;4889749;29;20067;-74
2023/08/21 06:45:57;;;;;;;1.70;1.60;;;;;;;35.59;23.84;100012.78;4874457;29;20104;-74
2023/08/21 06:48:25;;;;;;;2.17;1.70;;;;;;;33.02;25.38;99933.63;4890319;29;20045;-74
2023/08/21 06:50:54;;;;;;;3.33;1.90;;;;;;;31.55;26.89;99945.25;4902966;29;20126;-75
2023/08/21 06:53:20;;;;;;;2.65;1.77;;;;;;;30.94;27.87;100015.31;4900256;29;20563;-76
2023/08/21 06:55:47;;;;;;;2.97;1.90;;;;;;;30.41;28.82;99938.66;4890010;29;20476;-75
2023/08/21 06:58:13;;;;;;;3.25;1.40;;;;;;;30.26;28.62;100007.09;4882045;29;20045;-75
2023/08/21 07:00:39;;;;;;;1.92;1.63;;;;;;;29.15;29.08;99951.28;4889560;29;20037;-75
2023/08/21 07:03:09;;;;;;;2.20;2.00;;;;;;;29.09;29.77;100035.69;4890158;29;20066;-75
2023/08/21 07:05:35;;;;;;;4.03;2.00;;;;;;;28.61;29.99;100028.88;4904307;29;20044;-77
2023/08/21 07:08:02;;;;;;;2.00;1.80;;;;;;;28.39;30.55;100019.94;4888703;29;20388;-74
2023/08/21 07:10:29;;;;;;;3.78;1.65;;;;;;;28.90;30.14;99931.97;4887474;29;20049;-73
2023/08/21 07:12:56;;;;;;;1.67;1.58;;;;;;;29.00;30.78;99973.06;4887322;29;20427;-74
2023/08/21 07:15:22;;;;;;;2.50;1.60;;;;;;;29.92;30.10;100000.16;4888084;29;20139;-76
2023/08/21 07:17:48;;;;;;;1.92;1.40;;;;;;;30.13;29.01;99989.41;4890954;29;20051;-73
2023/08/21 07:20:15;;;;;;;2.58;1.63;;;;;;;29.57;29.06;100018.31;4887126;29;20048;-73
2023/08/21 07:22:49;;;;;;;2.38;1.67;;;;;;;29.25;30.31;100026.38;4870620;29;20048;-76
2023/08/21 07:25:16;;;;;;;4.18;1.77;;;;;;;30.34;29.15;100004.56;4876576;29;20088;-75
2023/08/21 07:27:45;;;;;;;2.58;1.70;;;;;;;32.38;28.36;99960.59;4886680;29;20042;-76
2023/08/21 07:30:18;;;;;;;2.53;1.67;;;;;;;33.50;26.27;100019.56;4888595;29;20504;-74
2023/08/21 07:32:44;;;;;;;3.25;1.67;;;;;;;35.01;24.49;99953.31;4889126;29;20136;-76
2023/08/21 07:35:10;;;;;;;2.03;1.52;;;;;;;35.22;23.49;100008.72;4902978;29;20059;-76
2023/08/21 07:37:37;;;;;;;3.72;1.67;;;;;;;34.30;24.21;100009.56;4904400;29;20423;-74
2023/08/21 07:40:05;;;;;;;3.75;1.85;;;;;;;32.79;24.93;99953.91;4887111;29;20131;-74
2023/08/21 07:42:31;;;;;;;2.58;1.80;;;;;;;32.03;26.50;99996.31;4870633;29;20041;-75
2023/08/21 07:44:57;;;;;;;2.28;1.73;;;;;;;31.25;27.11;100030.47;4890259;29;20140;-76
2023/08/21 07:47:23;;;;;;;6.30;2.05;;;;;;;29.98;28.21;99974.69;4879203;29;20044;-75
2023/08/21 07:49:50;;;;;;;2.95;1.80;;;;;;;29.74;28.00;100016.84;4890706;29;20138;-75
2023/08/21 07:52:16;;;;;;;5.25;2.08;;;;;;;29.20;28.99;99994.63;4872818;29;20071;-74
2023/08/21 07:54:43;;;;;;;3.47;2.00;;;;;;;29.31;29.56;99978.50;4897456;29;20044;-76
2023/08/21 07:57:09;;;;;;;2.65;1.70;;;;;;;32.35;27.19;99997.75;4887571;29;20048;-76
2023/08/21 07:59:36;;;;;;;3.05;1.70;;;;;;;34.96;25.25;99975.47;4901083;29;20044;-77
2023/08/21 08:02:03;;;;;;;4.07;2.10;;;;;;;35.09;23.89;99945.22;4902515;29;20048;-75
2023/08/21 08:04:29;;;;;;;2.05;1.63;;;;;;;34.51;23.39;99947.88;4888739;29;21586;-75
2023/08/21 08:06:55;;;;;;;2.28;1.90;;;;;;;33.34;24.06;99956.41;4887271;29;20095;-75
2023/08/21 08:09:22;;;;;;;2.00;1.65;;;;;;;33.35;24.51;100016.56;4890217;29;20139;-74
2023/08/21 08:11:48;;;;;;;1.70;1.60;;;;;;;33.18;24.81;99977.88;4891437;29;20044;-74
2023/08/21 08:14:22;;;;;;;5.63;2.35;;;;;;;32.98;25.07;99951.13;4886761;29;20041;-75
2023/08/21 08:16:51;;;;;;;1.90;1.80;;;;;;;33.14;25.00;99977.31;4904230;29;20040;-75
2023/08/21 08:19:17;;;;;;;3.33;2.10;;;;;;;35.64;23.94;99998.75;4889275;29;20059;-74
2023/08/21 08:21:44;;;;;;;2.65;2.00;;;;;;;37.83;21.95;99975.09;4886126;29;20045;-75
2023/08/21 08:24:10;;;;;;;2.72;1.98;;;;;;;39.36;20.85;99994.31;4887577;29;20056;-76
2023/08/21 08:26:37;;;;;;;2.25;1.80;;;;;;;39.38;20.12;99965.03;4873081;29;20040;-76
2023/08/21 08:29:04;;;;;;;4.00;1.83;;;;;;;39.69;19.51;99990.94;4886983;29;20140;-76
2023/08/21 08:31:33;;;;;;;1.80;1.70;;;;;;;41.07;18.40;99989.94;4887069;29;20089;-78
2023/08/21 08:34:00;;;;;;;1.90;1.65;;;;;;;41.52;17.46;99959.28;4887415;29;20212;-75
2023/08/21 08:36:26;;;;;;;2.90;2.10;;;;;;;42.37;16.83;99989.44;4902373;29;20049;-77
2023/08/21 08:38:53;;;;;;;2.17;1.85;;;;;;;43.22;16.10;99932.66;4870914;29;20420;-77
2023/08/21 08:41:30;;;;;;;3.03;2.13;;;;;;;45.11;15.48;99981.16;4897963;29;20036;-77
2023/08/21 08:44:01;;;;;;;2.92;2.65;;;;;;;45.06;14.72;99946.19;4888530;29;20123;-78
2023/08/21 08:46:30;;;;;;;2.63;2.10;;;;;;;45.44;14.84;99968.75;4897301;29;20056;-75
2023/08/21 08:49:00;;;;;;;3.85;2.63;;;;;;;45.23;14.43;99961.94;4866909;29;20495;-77
2023/08/21 08:51:31;;;;;;;3.60;2.60;;;;;;;43.70;14.66;99956.59;4884954;29;20049;-75
2023/08/21 08:54:01;;;;;;;4.72;2.45;;;;;;;42.23;15.54;99921.19;4889774;29;20064;-77
2023/08/21 08:56:27;;;;;;;2.67;2.45;;;;;;;42.25;15.86;99935.47;4899130;29;20046;-77
2023/08/21 08:58:53;;;;;;;2.10;1.90;;;;;;;41.06;15.64;99905.59;4872509;29;20143;-78
2023/08/21 09:01:20;;;;;;;3.10;2.13;;;;;;;40.99;15.86;99956.59;4889026;29;20033;-78
2023/08/21 09:03:49;;;;;;;4.00;2.45;;;;;;;40.75;16.15;99943.34;4899466;29;20052;-77
2023/08/21 09:06:16;;;;;;;3.28;2.30;;;;;;;40.13;16.46;99962.47;4888886;29;20047;-78
2023/08/21 09:08:56;;;;;;;3.15;2.30;;;;;;;38.36;17.30;99898.00;4885590;29;20056;-78
2023/08/21 09:11:23;;;;;;;;;;;;;;;38.29;17.94;99967.72;4901714;29;20108;-78
2023/08/21 09:13:50;;;;;;;2.50;2.30;;;;;;;39.52;17.85;99961.34;4900579;29;19978;-76
2023/08/21 09:16:21;;;;;;;3.95;2.50;;;;;;;40.15;16.31;99927.72;4870188;29;20064;-78
2023/08/21 09:18:56;;;;;;;2.17;1.98;;;;;;;39.78;16.33;99899.94;4901413;29;20545;-76
2023/08/21 09:21:27;;;;;;;4.47;2.47;;;;;;;41.56;15.58;99913.31;4868332;29;20055;-77
2023/08/21 09:23:59;;;;;;;3.20;2.60;;;;;;;43.23;15.03;99917.91;4885211;29;20131;-77
2023/08/21 09:26:28;;;;;;;3.30;3.00;;;;;;;44.44;13.71;99920.00;4886092;29;20519;-76
2023/08/21 09:29:04;;;;;;;3.33;3.03;;;;;;;44.92;13.50;99898.94;4885818;29;20103;-76
2023/08/21 09:31:33;;;;;;;4.97;4.15;;;;;;;45.56;13.45;99961.34;4900725;29;20051;-76
2023/08/21 09:34:04;;;;;;;5.47;4.80;;;;;;;45.83;12.85;99933.31;4886445;29;20040;-78
2023/08/21 09:36:32;;;;;;;5.65;5.20;;;;;;;44.85;13.02;99922.09;4867606;29;20116;-77
2023/08/21 09:38:58;;;;;;;5.38;4.88;;;;;;;45.02;12.33;99931.31;4868906;29;20508;-77
2023/08/21 09:41:28;;;;;;;4.07;3.72;;;;;;;45.34;12.36;99930.09;4900711;29;20511;-76
2023/08/21 09:43:59;;;;;;;3.92;3.60;;;;;;;45.55;11.97;99902.00;4871046;29;20507;-74
2023/08/21 09:46:28;;;;;;;3.47;3.10;;;;;;;46.90;12.00;99938.28;4886830;29;20162;-77
2023/08/21 09:48:55;;;;;;;5.75;3.80;;;;;;;47.20;11.12;99908.72;4887209;29;20104;-75
2023/08/21 09:51:26;;;;;;;3.75;3.17;;;;;;;46.68;11.38;99888.66;4885920;29;20080;-78
2023/08/21 09:54:11;;;;;;;4.28;3.90;;;;;;;45.51;10.90;99876.09;4886508;29;20044;-75
2023/08/21 09:56:42;;;;;;;6.75;4.38;;;;;;;44.72;12.03;99910.25;4874192;29;20040;-76
2023/08/21 09:59:15;;;;;;;3.90;3.50;;;;;;;43.57;12.40;99888.28;4888415;29;20045;-77
2023/08/21 10:01:41;;;;;;;3.85;3.45;;;;;;;44.13;13.03;99912.84;4886233;29;20044;-77
2023/08/21 10:04:10;;;;;;;3.75;3.40;;;;;;;44.14;12.52;99867.94;4900691;29;20076;-77
2023/08/21 10:06:36;;;;;;;3.50;3.17;;;;;;;44.38;12.71;99853.22;4887743;29;20045;-75
2023/08/21 10:09:03;;;;;;;4.70;4.28;;;;;;;45.27;12.43;99843.22;4886174;29;20092;-73
2023/08/21 10:11:30;;;;;;;3.80;3.13;;;;;;;46.59;11.78;99920.44;4893855;29;20045;-77
2023/08/21 10:13:57;;;;;;;3.00;2.70;;;;;;;47.51;11.19;99928.41;4889101;29;20045;-77
2023/08/21 10:16:24;;;;;;;2.70;2.50;;;;;;;46.16;11.66;99854.81;4905525;29;20040;-77
2023/08/21 10:18:54;;;;;;;3.08;2.35;;;;;;;45.57;11.84;99927.28;4862503;29;20052;-78
2023/08/21 10:21:22;;;;;;;6.88;2.42;;;;;;;45.63;11.88;99839.50;4885163;29;20041;-77
2023/08/21 10:23:50;;;;;;;2.53;2.25;;;;;;;45.21;11.84;99833.16;4878574;29;20590;-76
2023/08/21 10:26:20;;;;;;;3.58;2.20;;;;;;;46.20;11.71;99909.31;4858635;29;20116;-75
2023/08/21 10:28:54;;;;;;;2.53;1.98;;;;;;;45.96;11.95;99901.16;4887953;29;20059;-78
2023/08/21 10:31:39;;;;;;;3.60;2.40;;;;;;;46.94;11.76;99902.81;4888382;29;20048;-78
2023/08/21 10:34:14;;;;;;;4.60;3.00;;;;;;;47.54;11.59;99905.84;4893690;29;20698;-80
2023/08/21 10:36:43;;;;;;;3.58;2.95;;;;;;;47.54;10.97;99908.59;4886966;29;20558;-78
2023/08/21 10:39:17;;;;;;;3.28;2.95;;;;;;;45.52;10.96;99888.75;4889430;29;20052;-78
2023/08/21 10:42:00;;;;;;;4.93;3.60;;;;;;;42.80;12.71;99904.00;4889410;29;20044;-77
2023/08/21 10:45:01;;;;;;;4.78;3.00;;;;;;;40.13;14.37;99894.38;4892391;29;20056;-78
2023/08/21 10:47:34;;;;;;;4.38;3.97;;;;;;;37.87;16.17;99868.81;4888567;29;20452;-78
2023/08/21 10:50:06;;;;;;;3.45;2.55;;;;;;;36.87;16.96;99874.50;4876529;29;20079;-78
2023/08/21 10:52:44;;;;;;;3.58;2.40;;;;;;;35.85;18.12;99885.34;4890142;29;20044;-76
2023/08/21 10:55:12;;;;;;;2.33;2.10;;;;;;;35.14;18.22;99886.09;4889028;29;20148;-79
2023/08/21 10:57:41;;;;;;;2.15;1.92;;;;;;;34.73;18.60;99891.53;4892481;29;20059;-78
2023/08/21 11:00:11;;;;;;;3.08;2.28;;;;;;;33.77;18.83;99869.34;4906478;29;20042;-77
2023/08/21 11:02:42;;;;;;;2.78;2.50;;;;;;;32.42;19.93;99827.41;4863531;29;20068;-78
2023/08/21 11:05:11;;;;;;;3.85;3.20;;;;;;;32.29;20.81;99907.69;4904594;29;20127;-79
2023/08/21 11:07:40;;;;;;;3.50;2.40;;;;;;;31.73;21.13;99890.72;4905727;29;20044;-76
2023/08/21 11:10:10;;;;;;;2.65;2.30;;;;;;;31.25;21.90;99867.38;4890075;29;20528;-77
2023/08/21 11:12:37;;;;;;;3.05;2.53;;;;;;;31.21;22.38;99895.56;4888356;29;20050;-78
2023/08/21 11:15:04;;;;;;;3.85;2.10;;;;;;;30.84;22.93;99868.59;4889971;29;20188;-77
2023/08/21 11:17:32;;;;;;;3.33;2.08;;;;;;;30.82;23.47;99894.75;4904671;29;20041;-78
2023/08/21 11:20:04;;;;;;;3.15;2.10;;;;;;;30.39;24.78;99880.72;4886433;29;20128;-74
2023/08/21 11:22:32;;;;;;;4.53;2.15;;;;;;;29.56;25.08;99798.69;4888618;29;20048;-77
2023/08/21 11:24:58;;;;;;;4.15;2.00;;;;;;;29.80;25.24;99883.25;4889066;29;20051;-76
2023/08/21 11:27:27;;;;;;;3.95;1.92;;;;;;;29.72;24.92;99886.63;4890769;29;20040;-77
2023/08/21 11:29:53;;;;;;;2.22;1.67;;;;;;;29.42;25.18;99867.75;4889487;29;20079;-76
2023/08/21 11:32:26;;;;;;;14.85;11.93;;;;;;;29.26;25.68;99841.41;4889648;29;20528;-76